sensor_id;sensor_type;location;lat;lon;timestamp;P1;durP1;ratioP1;P2;durP2;ratioP2
5787;SDS011;2920;48.158;12.254;2023-05-29T00:01:51;6.15;;;3.08;;
5787;SDS011;2920;48.158;12.254;2023-05-29T00:04:17;6.38;;;3.13;;
5787;SDS011;2920;48.158;12.254;2023-05-29T00:06:42;5.05;;;2.90;;
5787;SDS011;2920;48.158;12.254;2023-05-29T00:09:08;6.93;;;3.17;;
5787;SDS011;2920;48.158;12.254;2023-05-29T00:11:34;7.13;;;3.28;;
5787;SDS011;2920;48.158;12.254;2023-05-29T00:13:59;5.05;;;2.28;;
5787;SDS011;2920;48.158;12.254;2023-05-29T00:16:25;5.88;;;2.55;;
5787;SDS011;2920;48.158;12.254;2023-05-29T00:18:50;4.75;;;2.55;;
5787;SDS011;2920;48.158;12.254;2023-05-29T00:21:17;4.85;;;2.53;;
5787;SDS011;2920;48.158;12.254;2023-05-29T00:23:42;5.38;;;2.97;;
5787;SDS011;2920;48.158;12.254;2023-05-29T00:26:07;5.43;;;3.08;;
5787;SDS011;2920;48.158;12.254;2023-05-29T00:28:34;6.53;;;3.17;;
5787;SDS011;2920;48.158;12.254;2023-05-29T00:31:00;5.28;;;3.03;;
5787;SDS011;2920;48.158;12.254;2023-05-29T00:33:25;5.57;;;2.95;;
5787;SDS011;2920;48.158;12.254;2023-05-29T00:35:51;8.23;;;3.85;;
5787;SDS011;2920;48.158;12.254;2023-05-29T00:38:16;6.07;;;3.42;;
5787;SDS011;2920;48.158;12.254;2023-05-29T00:40:42;6.03;;;3.20;;
5787;SDS011;2920;48.158;12.254;2023-05-29T00:43:07;6.30;;;3.13;;
5787;SDS011;2920;48.158;12.254;2023-05-29T00:45:32;4.55;;;3.03;;
5787;SDS011;2920;48.158;12.254;2023-05-29T00:48:01;6.90;;;3.63;;
5787;SDS011;2920;48.158;12.254;2023-05-29T00:50:29;6.50;;;3.17;;
5787;SDS011;2920;48.158;12.254;2023-05-29T00:52:55;5.97;;;3.38;;
5787;SDS011;2920;48.158;12.254;2023-05-29T00:55:21;7.05;;;3.63;;
5787;SDS011;2920;48.158;12.254;2023-05-29T00:57:46;6.45;;;3.40;;
5787;SDS011;2920;48.158;12.254;2023-05-29T01:00:12;6.32;;;3.35;;
5787;SDS011;2920;48.158;12.254;2023-05-29T01:02:39;10.13;;;3.90;;
5787;SDS011;2920;48.158;12.254;2023-05-29T01:05:05;4.97;;;2.67;;
5787;SDS011;2920;48.158;12.254;2023-05-29T01:07:31;6.22;;;3.45;;
5787;SDS011;2920;48.158;12.254;2023-05-29T01:09:57;5.30;;;3.38;;
5787;SDS011;2920;48.158;12.254;2023-05-29T01:12:26;8.43;;;3.75;;
5787;SDS011;2920;48.158;12.254;2023-05-29T01:15:01;6.00;;;3.08;;
5787;SDS011;2920;48.158;12.254;2023-05-29T01:28:20;6.65;;;3.55;;
5787;SDS011;2920;48.158;12.254;2023-05-29T01:30:47;7.45;;;3.47;;
5787;SDS011;2920;48.158;12.254;2023-05-29T01:33:14;9.68;;;4.00;;
5787;SDS011;2920;48.158;12.254;2023-05-29T01:35:39;7.25;;;3.55;;
5787;SDS011;2920;48.158;12.254;2023-05-29T01:38:05;6.85;;;4.15;;
5787;SDS011;2920;48.158;12.254;2023-05-29T01:40:30;6.88;;;3.55;;
5787;SDS011;2920;48.158;12.254;2023-05-29T01:42:55;6.88;;;4.05;;
5787;SDS011;2920;48.158;12.254;2023-05-29T01:45:21;5.28;;;3.05;;
5787;SDS011;2920;48.158;12.254;2023-05-29T01:47:46;8.55;;;3.80;;
5787;SDS011;2920;48.158;12.254;2023-05-29T01:50:12;8.68;;;3.75;;
5787;SDS011;2920;48.158;12.254;2023-05-29T01:52:38;5.72;;;3.60;;
5787;SDS011;2920;48.158;12.254;2023-05-29T01:55:03;6.40;;;3.45;;
5787;SDS011;2920;48.158;12.254;2023-05-29T01:57:29;6.38;;;3.55;;
5787;SDS011;2920;48.158;12.254;2023-05-29T01:59:55;6.10;;;3.90;;
5787;SDS011;2920;48.158;12.254;2023-05-29T02:02:21;5.57;;;3.20;;
5787;SDS011;2920;48.158;12.254;2023-05-29T02:04:47;9.45;;;3.90;;
5787;SDS011;2920;48.158;12.254;2023-05-29T02:07:13;8.32;;;3.65;;
5787;SDS011;2920;48.158;12.254;2023-05-29T02:09:40;11.48;;;4.40;;
5787;SDS011;2920;48.158;12.254;2023-05-29T02:12:05;8.10;;;4.00;;
5787;SDS011;2920;48.158;12.254;2023-05-29T02:14:32;7.90;;;3.90;;
5787;SDS011;2920;48.158;12.254;2023-05-29T02:16:57;6.38;;;3.90;;
5787;SDS011;2920;48.158;12.254;2023-05-29T02:19:23;6.63;;;3.38;;
5787;SDS011;2920;48.158;12.254;2023-05-29T02:21:50;6.03;;;3.58;;
5787;SDS011;2920;48.158;12.254;2023-05-29T02:24:15;6.82;;;3.58;;
5787;SDS011;2920;48.158;12.254;2023-05-29T02:26:41;7.53;;;3.30;;
5787;SDS011;2920;48.158;12.254;2023-05-29T02:29:07;8.50;;;4.03;;
5787;SDS011;2920;48.158;12.254;2023-05-29T02:31:32;7.82;;;3.42;;
5787;SDS011;2920;48.158;12.254;2023-05-29T02:33:58;8.38;;;4.40;;
5787;SDS011;2920;48.158;12.254;2023-05-29T02:36:23;10.32;;;4.43;;
5787;SDS011;2920;48.158;12.254;2023-05-29T02:38:49;6.28;;;3.38;;
5787;SDS011;2920;48.158;12.254;2023-05-29T02:41:14;7.18;;;3.75;;
5787;SDS011;2920;48.158;12.254;2023-05-29T02:43:40;5.22;;;3.42;;
5787;SDS011;2920;48.158;12.254;2023-05-29T02:46:05;6.00;;;3.00;;
5787;SDS011;2920;48.158;12.254;2023-05-29T02:48:30;5.55;;;2.90;;
5787;SDS011;2920;48.158;12.254;2023-05-29T02:50:56;8.27;;;3.67;;
5787;SDS011;2920;48.158;12.254;2023-05-29T02:53:21;8.65;;;3.10;;
5787;SDS011;2920;48.158;12.254;2023-05-29T02:55:46;5.95;;;3.38;;
5787;SDS011;2920;48.158;12.254;2023-05-29T02:58:13;7.07;;;3.83;;
5787;SDS011;2920;48.158;12.254;2023-05-29T03:00:38;6.93;;;3.47;;
5787;SDS011;2920;48.158;12.254;2023-05-29T03:03:03;6.95;;;3.35;;
5787;SDS011;2920;48.158;12.254;2023-05-29T03:05:29;6.20;;;3.20;;
5787;SDS011;2920;48.158;12.254;2023-05-29T03:07:55;7.65;;;3.50;;
5787;SDS011;2920;48.158;12.254;2023-05-29T03:10:20;9.60;;;4.15;;
5787;SDS011;2920;48.158;12.254;2023-05-29T03:12:49;7.18;;;3.50;;
5787;SDS011;2920;48.158;12.254;2023-05-29T03:15:14;6.75;;;3.58;;
5787;SDS011;2920;48.158;12.254;2023-05-29T03:17:39;5.32;;;3.13;;
5787;SDS011;2920;48.158;12.254;2023-05-29T03:20:05;9.73;;;4.00;;
5787;SDS011;2920;48.158;12.254;2023-05-29T03:22:32;6.43;;;3.72;;
5787;SDS011;2920;48.158;12.254;2023-05-29T03:24:58;6.75;;;3.67;;
5787;SDS011;2920;48.158;12.254;2023-05-29T03:27:23;7.03;;;3.97;;
5787;SDS011;2920;48.158;12.254;2023-05-29T03:29:48;6.18;;;3.40;;
5787;SDS011;2920;48.158;12.254;2023-05-29T03:32:14;7.18;;;3.33;;
5787;SDS011;2920;48.158;12.254;2023-05-29T03:34:39;8.23;;;4.05;;
5787;SDS011;2920;48.158;12.254;2023-05-29T03:37:05;10.55;;;4.13;;
5787;SDS011;2920;48.158;12.254;2023-05-29T03:39:30;9.00;;;4.30;;
5787;SDS011;2920;48.158;12.254;2023-05-29T03:41:55;8.88;;;4.30;;
5787;SDS011;2920;48.158;12.254;2023-05-29T03:44:21;8.45;;;3.65;;
5787;SDS011;2920;48.158;12.254;2023-05-29T03:46:46;6.22;;;3.75;;
5787;SDS011;2920;48.158;12.254;2023-05-29T03:49:11;6.85;;;3.28;;
5787;SDS011;2920;48.158;12.254;2023-05-29T03:51:37;6.85;;;3.97;;
5787;SDS011;2920;48.158;12.254;2023-05-29T03:54:02;6.93;;;3.63;;
5787;SDS011;2920;48.158;12.254;2023-05-29T03:56:27;9.23;;;4.00;;
5787;SDS011;2920;48.158;12.254;2023-05-29T03:58:53;8.55;;;4.43;;
5787;SDS011;2920;48.158;12.254;2023-05-29T04:01:18;11.10;;;4.45;;
5787;SDS011;2920;48.158;12.254;2023-05-29T04:03:43;7.03;;;4.00;;
5787;SDS011;2920;48.158;12.254;2023-05-29T04:06:10;6.38;;;4.05;;
5787;SDS011;2920;48.158;12.254;2023-05-29T04:08:36;8.98;;;4.07;;
5787;SDS011;2920;48.158;12.254;2023-05-29T04:11:01;5.95;;;3.40;;
5787;SDS011;2920;48.158;12.254;2023-05-29T04:13:28;6.43;;;3.60;;
5787;SDS011;2920;48.158;12.254;2023-05-29T04:15:53;8.05;;;4.05;;
5787;SDS011;2920;48.158;12.254;2023-05-29T04:18:19;7.10;;;4.20;;
5787;SDS011;2920;48.158;12.254;2023-05-29T04:20:45;9.73;;;3.80;;
5787;SDS011;2920;48.158;12.254;2023-05-29T04:23:12;7.05;;;3.80;;
5787;SDS011;2920;48.158;12.254;2023-05-29T04:25:37;9.10;;;4.32;;
5787;SDS011;2920;48.158;12.254;2023-05-29T04:28:03;8.23;;;4.25;;
5787;SDS011;2920;48.158;12.254;2023-05-29T04:30:28;8.98;;;4.20;;
5787;SDS011;2920;48.158;12.254;2023-05-29T04:32:53;7.65;;;4.28;;
5787;SDS011;2920;48.158;12.254;2023-05-29T04:35:19;6.13;;;3.60;;
5787;SDS011;2920;48.158;12.254;2023-05-29T04:37:44;6.63;;;3.90;;
5787;SDS011;2920;48.158;12.254;2023-05-29T04:40:11;13.70;;;4.28;;
5787;SDS011;2920;48.158;12.254;2023-05-29T04:42:36;8.27;;;4.20;;
5787;SDS011;2920;48.158;12.254;2023-05-29T04:45:02;9.73;;;4.55;;
5787;SDS011;2920;48.158;12.254;2023-05-29T04:47:29;6.43;;;4.00;;
5787;SDS011;2920;48.158;12.254;2023-05-29T04:49:57;7.43;;;3.88;;
5787;SDS011;2920;48.158;12.254;2023-05-29T04:52:24;8.15;;;4.35;;
5787;SDS011;2920;48.158;12.254;2023-05-29T04:54:49;6.93;;;3.90;;
5787;SDS011;2920;48.158;12.254;2023-05-29T04:57:15;7.55;;;3.97;;
5787;SDS011;2920;48.158;12.254;2023-05-29T04:59:41;6.13;;;4.00;;
5787;SDS011;2920;48.158;12.254;2023-05-29T05:02:06;6.03;;;3.25;;
5787;SDS011;2920;48.158;12.254;2023-05-29T05:04:32;6.47;;;3.03;;
5787;SDS011;2920;48.158;12.254;2023-05-29T05:06:57;8.20;;;3.50;;
5787;SDS011;2920;48.158;12.254;2023-05-29T05:09:22;4.97;;;3.35;;
5787;SDS011;2920;48.158;12.254;2023-05-29T05:11:48;7.50;;;4.20;;
5787;SDS011;2920;48.158;12.254;2023-05-29T05:14:13;8.05;;;4.35;;
5787;SDS011;2920;48.158;12.254;2023-05-29T05:16:38;8.45;;;4.25;;
5787;SDS011;2920;48.158;12.254;2023-05-29T05:19:04;6.75;;;3.33;;
5787;SDS011;2920;48.158;12.254;2023-05-29T05:21:30;7.88;;;3.55;;
5787;SDS011;2920;48.158;12.254;2023-05-29T05:23:56;4.82;;;3.35;;
5787;SDS011;2920;48.158;12.254;2023-05-29T05:26:21;6.53;;;4.28;;
5787;SDS011;2920;48.158;12.254;2023-05-29T05:28:47;8.85;;;3.83;;
5787;SDS011;2920;48.158;12.254;2023-05-29T05:31:12;6.60;;;4.22;;
5787;SDS011;2920;48.158;12.254;2023-05-29T05:33:38;6.40;;;4.40;;
5787;SDS011;2920;48.158;12.254;2023-05-29T05:36:03;11.02;;;5.53;;
5787;SDS011;2920;48.158;12.254;2023-05-29T05:38:28;7.95;;;4.13;;
5787;SDS011;2920;48.158;12.254;2023-05-29T05:40:54;6.45;;;3.90;;
5787;SDS011;2920;48.158;12.254;2023-05-29T05:43:20;8.00;;;4.45;;
5787;SDS011;2920;48.158;12.254;2023-05-29T05:45:46;7.68;;;3.75;;
5787;SDS011;2920;48.158;12.254;2023-05-29T05:48:11;8.73;;;4.30;;
5787;SDS011;2920;48.158;12.254;2023-05-29T05:50:37;10.88;;;4.55;;
5787;SDS011;2920;48.158;12.254;2023-05-29T05:53:02;12.27;;;5.05;;
5787;SDS011;2920;48.158;12.254;2023-05-29T05:55:27;5.93;;;3.95;;
5787;SDS011;2920;48.158;12.254;2023-05-29T05:57:53;9.48;;;5.30;;
5787;SDS011;2920;48.158;12.254;2023-05-29T06:00:18;8.25;;;4.60;;
5787;SDS011;2920;48.158;12.254;2023-05-29T06:02:44;8.27;;;4.00;;
5787;SDS011;2920;48.158;12.254;2023-05-29T06:05:10;7.53;;;4.13;;
5787;SDS011;2920;48.158;12.254;2023-05-29T06:07:36;14.27;;;4.57;;
5787;SDS011;2920;48.158;12.254;2023-05-29T06:10:02;9.02;;;4.07;;
5787;SDS011;2920;48.158;12.254;2023-05-29T06:12:28;8.93;;;4.57;;
5787;SDS011;2920;48.158;12.254;2023-05-29T06:14:54;6.25;;;4.38;;
5787;SDS011;2920;48.158;12.254;2023-05-29T06:17:19;7.68;;;3.97;;
5787;SDS011;2920;48.158;12.254;2023-05-29T06:19:46;9.52;;;4.72;;
5787;SDS011;2920;48.158;12.254;2023-05-29T06:22:13;6.65;;;4.30;;
5787;SDS011;2920;48.158;12.254;2023-05-29T06:24:39;7.68;;;4.20;;
5787;SDS011;2920;48.158;12.254;2023-05-29T06:27:04;9.82;;;4.10;;
5787;SDS011;2920;48.158;12.254;2023-05-29T06:29:31;15.95;;;5.22;;
5787;SDS011;2920;48.158;12.254;2023-05-29T06:31:56;9.73;;;4.43;;
5787;SDS011;2920;48.158;12.254;2023-05-29T06:34:22;7.57;;;4.13;;
5787;SDS011;2920;48.158;12.254;2023-05-29T06:36:47;8.90;;;4.82;;
5787;SDS011;2920;48.158;12.254;2023-05-29T06:39:13;16.70;;;4.80;;
5787;SDS011;2920;48.158;12.254;2023-05-29T06:41:38;7.82;;;4.32;;
5787;SDS011;2920;48.158;12.254;2023-05-29T06:44:04;8.32;;;4.60;;
5787;SDS011;2920;48.158;12.254;2023-05-29T06:46:29;10.20;;;5.28;;
5787;SDS011;2920;48.158;12.254;2023-05-29T06:48:55;57.38;;;7.63;;
5787;SDS011;2920;48.158;12.254;2023-05-29T06:51:20;11.52;;;4.85;;
5787;SDS011;2920;48.158;12.254;2023-05-29T06:53:46;27.33;;;5.80;;
5787;SDS011;2920;48.158;12.254;2023-05-29T06:56:11;9.63;;;4.43;;
5787;SDS011;2920;48.158;12.254;2023-05-29T06:58:36;7.72;;;4.63;;
5787;SDS011;2920;48.158;12.254;2023-05-29T07:01:02;7.85;;;4.40;;
5787;SDS011;2920;48.158;12.254;2023-05-29T07:03:27;6.25;;;3.90;;
5787;SDS011;2920;48.158;12.254;2023-05-29T07:05:52;6.78;;;4.10;;
5787;SDS011;2920;48.158;12.254;2023-05-29T07:08:18;13.55;;;4.55;;
5787;SDS011;2920;48.158;12.254;2023-05-29T07:10:43;9.50;;;4.53;;
5787;SDS011;2920;48.158;12.254;2023-05-29T07:13:09;13.52;;;4.82;;
5787;SDS011;2920;48.158;12.254;2023-05-29T07:15:34;7.00;;;4.32;;
5787;SDS011;2920;48.158;12.254;2023-05-29T07:18:00;9.45;;;3.97;;
5787;SDS011;2920;48.158;12.254;2023-05-29T07:20:25;9.90;;;4.18;;
5787;SDS011;2920;48.158;12.254;2023-05-29T07:22:51;8.82;;;4.13;;
5787;SDS011;2920;48.158;12.254;2023-05-29T07:25:16;7.93;;;4.38;;
5787;SDS011;2920;48.158;12.254;2023-05-29T07:27:41;21.92;;;6.25;;
5787;SDS011;2920;48.158;12.254;2023-05-29T07:30:07;13.90;;;4.90;;
5787;SDS011;2920;48.158;12.254;2023-05-29T07:32:32;9.27;;;4.45;;
5787;SDS011;2920;48.158;12.254;2023-05-29T07:34:58;10.02;;;4.30;;
5787;SDS011;2920;48.158;12.254;2023-05-29T07:37:23;8.88;;;4.25;;
5787;SDS011;2920;48.158;12.254;2023-05-29T07:39:48;18.58;;;5.03;;
5787;SDS011;2920;48.158;12.254;2023-05-29T07:42:14;13.52;;;4.88;;
5787;SDS011;2920;48.158;12.254;2023-05-29T07:44:39;7.10;;;3.97;;
5787;SDS011;2920;48.158;12.254;2023-05-29T07:47:06;11.40;;;4.28;;
5787;SDS011;2920;48.158;12.254;2023-05-29T07:49:32;9.95;;;3.83;;
5787;SDS011;2920;48.158;12.254;2023-05-29T07:51:57;11.35;;;4.65;;
5787;SDS011;2920;48.158;12.254;2023-05-29T07:54:23;7.55;;;5.03;;
5787;SDS011;2920;48.158;12.254;2023-05-29T07:56:48;10.25;;;4.13;;
5787;SDS011;2920;48.158;12.254;2023-05-29T07:59:13;9.88;;;5.00;;
5787;SDS011;2920;48.158;12.254;2023-05-29T08:01:39;8.68;;;4.43;;
5787;SDS011;2920;48.158;12.254;2023-05-29T08:04:06;8.63;;;4.03;;
5787;SDS011;2920;48.158;12.254;2023-05-29T08:06:31;7.43;;;4.03;;
5787;SDS011;2920;48.158;12.254;2023-05-29T08:08:58;8.88;;;4.45;;
5787;SDS011;2920;48.158;12.254;2023-05-29T08:11:23;9.70;;;4.55;;
5787;SDS011;2920;48.158;12.254;2023-05-29T08:13:48;7.72;;;4.57;;
5787;SDS011;2920;48.158;12.254;2023-05-29T08:16:14;10.10;;;4.78;;
5787;SDS011;2920;48.158;12.254;2023-05-29T08:18:40;8.55;;;5.03;;
5787;SDS011;2920;48.158;12.254;2023-05-29T08:21:06;9.20;;;4.55;;
5787;SDS011;2920;48.158;12.254;2023-05-29T08:23:31;8.20;;;4.88;;
5787;SDS011;2920;48.158;12.254;2023-05-29T08:25:57;9.60;;;4.60;;
5787;SDS011;2920;48.158;12.254;2023-05-29T08:28:22;8.20;;;5.05;;
5787;SDS011;2920;48.158;12.254;2023-05-29T08:30:47;10.00;;;4.90;;
5787;SDS011;2920;48.158;12.254;2023-05-29T08:33:13;9.82;;;5.05;;
5787;SDS011;2920;48.158;12.254;2023-05-29T08:35:38;9.10;;;4.68;;
5787;SDS011;2920;48.158;12.254;2023-05-29T08:38:03;7.05;;;4.68;;
5787;SDS011;2920;48.158;12.254;2023-05-29T08:40:29;10.38;;;4.97;;
5787;SDS011;2920;48.158;12.254;2023-05-29T08:45:22;8.25;;;4.88;;
5787;SDS011;2920;48.158;12.254;2023-05-29T08:47:49;5.28;;;4.13;;
5787;SDS011;2920;48.158;12.254;2023-05-29T08:50:17;7.57;;;4.10;;
5787;SDS011;2920;48.158;12.254;2023-05-29T08:52:42;9.85;;;4.70;;
5787;SDS011;2920;48.158;12.254;2023-05-29T08:55:08;9.75;;;4.88;;
5787;SDS011;2920;48.158;12.254;2023-05-29T08:57:34;8.60;;;4.72;;
5787;SDS011;2920;48.158;12.254;2023-05-29T09:00:02;10.83;;;4.33;;
5787;SDS011;2920;48.158;12.254;2023-05-29T09:02:34;9.32;;;4.97;;
5787;SDS011;2920;48.158;12.254;2023-05-29T09:05:02;6.88;;;4.78;;
5787;SDS011;2920;48.158;12.254;2023-05-29T09:07:27;9.57;;;4.82;;
5787;SDS011;2920;48.158;12.254;2023-05-29T09:09:52;8.40;;;4.85;;
5787;SDS011;2920;48.158;12.254;2023-05-29T09:12:18;7.78;;;4.97;;
5787;SDS011;2920;48.158;12.254;2023-05-29T09:14:44;8.70;;;4.70;;
5787;SDS011;2920;48.158;12.254;2023-05-29T09:17:10;9.25;;;5.10;;
5787;SDS011;2920;48.158;12.254;2023-05-29T09:19:37;7.72;;;4.40;;
5787;SDS011;2920;48.158;12.254;2023-05-29T09:22:07;15.50;;;5.32;;
5787;SDS011;2920;48.158;12.254;2023-05-29T09:24:40;9.73;;;4.47;;
5787;SDS011;2920;48.158;12.254;2023-05-29T09:27:05;9.13;;;4.97;;
5787;SDS011;2920;48.158;12.254;2023-05-29T09:29:40;6.65;;;4.53;;
5787;SDS011;2920;48.158;12.254;2023-05-29T09:32:11;8.60;;;4.40;;
5787;SDS011;2920;48.158;12.254;2023-05-29T09:34:37;7.80;;;4.55;;
5787;SDS011;2920;48.158;12.254;2023-05-29T09:37:03;8.15;;;4.65;;
5787;SDS011;2920;48.158;12.254;2023-05-29T09:39:34;12.27;;;5.13;;
5787;SDS011;2920;48.158;12.254;2023-05-29T09:42:03;15.50;;;4.60;;
5787;SDS011;2920;48.158;12.254;2023-05-29T09:44:30;8.05;;;4.47;;
5787;SDS011;2920;48.158;12.254;2023-05-29T09:46:59;11.63;;;5.32;;
5787;SDS011;2920;48.158;12.254;2023-05-29T09:49:25;7.55;;;5.03;;
5787;SDS011;2920;48.158;12.254;2023-05-29T09:51:53;8.82;;;4.28;;
5787;SDS011;2920;48.158;12.254;2023-05-29T09:54:19;13.83;;;4.73;;
5787;SDS011;2920;48.158;12.254;2023-05-29T09:56:45;6.88;;;4.25;;
5787;SDS011;2920;48.158;12.254;2023-05-29T09:59:11;6.68;;;4.63;;
5787;SDS011;2920;48.158;12.254;2023-05-29T10:01:43;7.78;;;4.63;;
5787;SDS011;2920;48.158;12.254;2023-05-29T10:04:09;9.00;;;4.88;;
5787;SDS011;2920;48.158;12.254;2023-05-29T10:06:39;10.05;;;4.43;;
5787;SDS011;2920;48.158;12.254;2023-05-29T10:09:11;6.40;;;4.20;;
5787;SDS011;2920;48.158;12.254;2023-05-29T10:11:39;8.18;;;4.65;;
5787;SDS011;2920;48.158;12.254;2023-05-29T10:14:06;8.18;;;4.40;;
5787;SDS011;2920;48.158;12.254;2023-05-29T10:16:35;8.75;;;4.15;;
5787;SDS011;2920;48.158;12.254;2023-05-29T10:19:06;9.13;;;4.03;;
5787;SDS011;2920;48.158;12.254;2023-05-29T10:21:32;7.75;;;3.80;;
5787;SDS011;2920;48.158;12.254;2023-05-29T10:24:02;8.60;;;4.68;;
5787;SDS011;2920;48.158;12.254;2023-05-29T10:26:31;7.07;;;4.30;;
5787;SDS011;2920;48.158;12.254;2023-05-29T10:29:05;6.40;;;4.55;;
5787;SDS011;2920;48.158;12.254;2023-05-29T10:31:42;12.70;;;5.15;;
5787;SDS011;2920;48.158;12.254;2023-05-29T10:37:09;5.78;;;4.15;;
5787;SDS011;2920;48.158;12.254;2023-05-29T10:39:47;9.07;;;4.22;;
5787;SDS011;2920;48.158;12.254;2023-05-29T10:47:54;6.55;;;4.05;;
5787;SDS011;2920;48.158;12.254;2023-05-29T10:53:14;10.90;;;4.72;;
5787;SDS011;2920;48.158;12.254;2023-05-29T10:55:41;6.72;;;4.20;;
5787;SDS011;2920;48.158;12.254;2023-05-29T11:00:45;9.63;;;4.30;;
5787;SDS011;2920;48.158;12.254;2023-05-29T11:03:14;8.05;;;4.53;;
5787;SDS011;2920;48.158;12.254;2023-05-29T11:05:59;6.63;;;3.75;;
5787;SDS011;2920;48.158;12.254;2023-05-29T11:08:35;5.57;;;3.67;;
5787;SDS011;2920;48.158;12.254;2023-05-29T11:11:07;6.40;;;3.55;;
5787;SDS011;2920;48.158;12.254;2023-05-29T11:13:37;5.25;;;3.80;;
5787;SDS011;2920;48.158;12.254;2023-05-29T11:16:12;5.90;;;4.32;;
5787;SDS011;2920;48.158;12.254;2023-05-29T11:18:42;7.45;;;4.68;;
5787;SDS011;2920;48.158;12.254;2023-05-29T11:24:03;7.18;;;3.95;;
5787;SDS011;2920;48.158;12.254;2023-05-29T11:26:31;6.78;;;4.10;;
5787;SDS011;2920;48.158;12.254;2023-05-29T11:28:58;6.85;;;3.88;;
5787;SDS011;2920;48.158;12.254;2023-05-29T11:31:29;6.70;;;3.42;;
5787;SDS011;2920;48.158;12.254;2023-05-29T11:34:01;6.38;;;3.85;;
5787;SDS011;2920;48.158;12.254;2023-05-29T11:36:30;8.13;;;5.03;;
5787;SDS011;2920;48.158;12.254;2023-05-29T11:38:58;5.93;;;3.97;;
5787;SDS011;2920;48.158;12.254;2023-05-29T11:41:25;7.10;;;4.00;;
5787;SDS011;2920;48.158;12.254;2023-05-29T11:44:00;5.93;;;3.90;;
5787;SDS011;2920;48.158;12.254;2023-05-29T11:46:27;6.13;;;3.78;;
5787;SDS011;2920;48.158;12.254;2023-05-29T11:48:55;8.70;;;4.47;;
5787;SDS011;2920;48.158;12.254;2023-05-29T11:51:21;9.20;;;4.50;;
5787;SDS011;2920;48.158;12.254;2023-05-29T11:53:47;4.75;;;3.92;;
5787;SDS011;2920;48.158;12.254;2023-05-29T11:56:12;6.07;;;4.18;;
5787;SDS011;2920;48.158;12.254;2023-05-29T11:58:38;5.50;;;3.92;;
5787;SDS011;2920;48.158;12.254;2023-05-29T12:01:04;5.72;;;3.78;;
5787;SDS011;2920;48.158;12.254;2023-05-29T12:03:31;5.95;;;4.20;;
5787;SDS011;2920;48.158;12.254;2023-05-29T12:06:02;8.02;;;4.20;;
5787;SDS011;2920;48.158;12.254;2023-05-29T12:08:27;10.25;;;3.97;;
5787;SDS011;2920;48.158;12.254;2023-05-29T12:10:52;7.10;;;4.67;;
5787;SDS011;2920;48.158;12.254;2023-05-29T12:13:18;6.63;;;4.32;;
5787;SDS011;2920;48.158;12.254;2023-05-29T12:15:44;6.40;;;4.05;;
5787;SDS011;2920;48.158;12.254;2023-05-29T12:18:10;6.18;;;3.97;;
5787;SDS011;2920;48.158;12.254;2023-05-29T12:20:36;5.10;;;4.30;;
5787;SDS011;2920;48.158;12.254;2023-05-29T12:23:01;5.18;;;4.03;;
5787;SDS011;2920;48.158;12.254;2023-05-29T12:25:27;8.95;;;4.10;;
5787;SDS011;2920;48.158;12.254;2023-05-29T12:27:55;5.50;;;3.58;;
5787;SDS011;2920;48.158;12.254;2023-05-29T12:30:21;6.95;;;4.32;;
5787;SDS011;2920;48.158;12.254;2023-05-29T12:32:48;6.47;;;4.03;;
5787;SDS011;2920;48.158;12.254;2023-05-29T12:35:15;7.35;;;4.20;;
5787;SDS011;2920;48.158;12.254;2023-05-29T12:40:26;5.88;;;3.55;;
5787;SDS011;2920;48.158;12.254;2023-05-29T12:42:54;6.90;;;4.35;;
5787;SDS011;2920;48.158;12.254;2023-05-29T12:45:27;6.63;;;3.97;;
5787;SDS011;2920;48.158;12.254;2023-05-29T12:47:54;6.20;;;3.97;;
5787;SDS011;2920;48.158;12.254;2023-05-29T12:52:57;5.10;;;3.80;;
5787;SDS011;2920;48.158;12.254;2023-05-29T12:55:25;5.65;;;4.18;;
5787;SDS011;2920;48.158;12.254;2023-05-29T12:57:52;6.95;;;4.20;;
5787;SDS011;2920;48.158;12.254;2023-05-29T13:00:19;6.07;;;3.95;;
5787;SDS011;2920;48.158;12.254;2023-05-29T13:02:45;9.13;;;4.30;;
5787;SDS011;2920;48.158;12.254;2023-05-29T13:05:11;6.13;;;3.92;;
5787;SDS011;2920;48.158;12.254;2023-05-29T13:07:36;5.07;;;4.20;;
5787;SDS011;2920;48.158;12.254;2023-05-29T13:10:01;5.20;;;4.18;;
5787;SDS011;2920;48.158;12.254;2023-05-29T13:12:27;5.72;;;3.55;;
5787;SDS011;2920;48.158;12.254;2023-05-29T13:14:52;6.60;;;4.10;;
5787;SDS011;2920;48.158;12.254;2023-05-29T13:17:20;6.20;;;4.20;;
5787;SDS011;2920;48.158;12.254;2023-05-29T13:19:46;12.07;;;4.22;;
5787;SDS011;2920;48.158;12.254;2023-05-29T13:22:11;7.38;;;3.85;;
5787;SDS011;2920;48.158;12.254;2023-05-29T13:24:36;6.53;;;3.70;;
5787;SDS011;2920;48.158;12.254;2023-05-29T13:27:02;8.13;;;4.07;;
5787;SDS011;2920;48.158;12.254;2023-05-29T13:29:27;6.85;;;4.18;;
5787;SDS011;2920;48.158;12.254;2023-05-29T13:31:52;7.10;;;4.32;;
5787;SDS011;2920;48.158;12.254;2023-05-29T13:34:18;9.73;;;4.33;;
5787;SDS011;2920;48.158;12.254;2023-05-29T13:36:43;6.10;;;3.87;;
5787;SDS011;2920;48.158;12.254;2023-05-29T13:39:09;7.68;;;4.18;;
5787;SDS011;2920;48.158;12.254;2023-05-29T13:41:35;6.10;;;3.75;;
5787;SDS011;2920;48.158;12.254;2023-05-29T13:44:00;6.40;;;4.20;;
5787;SDS011;2920;48.158;12.254;2023-05-29T13:46:26;5.28;;;3.83;;
5787;SDS011;2920;48.158;12.254;2023-05-29T13:48:52;6.57;;;4.05;;
5787;SDS011;2920;48.158;12.254;2023-05-29T13:51:17;5.82;;;3.63;;
5787;SDS011;2920;48.158;12.254;2023-05-29T13:53:42;6.17;;;4.40;;
5787;SDS011;2920;48.158;12.254;2023-05-29T13:56:08;4.72;;;3.28;;
5787;SDS011;2920;48.158;12.254;2023-05-29T13:58:33;5.47;;;3.70;;
5787;SDS011;2920;48.158;12.254;2023-05-29T14:00:58;6.47;;;4.20;;
5787;SDS011;2920;48.158;12.254;2023-05-29T14:03:24;10.35;;;5.95;;
5787;SDS011;2920;48.158;12.254;2023-05-29T14:05:53;9.27;;;4.00;;
5787;SDS011;2920;48.158;12.254;2023-05-29T14:08:18;7.78;;;3.35;;
5787;SDS011;2920;48.158;12.254;2023-05-29T14:10:44;6.88;;;4.18;;
5787;SDS011;2920;48.158;12.254;2023-05-29T14:13:09;5.78;;;4.07;;
5787;SDS011;2920;48.158;12.254;2023-05-29T14:15:35;6.05;;;4.05;;
5787;SDS011;2920;48.158;12.254;2023-05-29T14:18:00;5.68;;;3.42;;
5787;SDS011;2920;48.158;12.254;2023-05-29T14:20:27;8.32;;;4.00;;
5787;SDS011;2920;48.158;12.254;2023-05-29T14:22:52;6.03;;;4.20;;
5787;SDS011;2920;48.158;12.254;2023-05-29T14:25:18;5.93;;;3.72;;
5787;SDS011;2920;48.158;12.254;2023-05-29T14:27:43;6.60;;;3.80;;
5787;SDS011;2920;48.158;12.254;2023-05-29T14:30:09;6.68;;;4.43;;
5787;SDS011;2920;48.158;12.254;2023-05-29T14:32:35;6.85;;;3.75;;
5787;SDS011;2920;48.158;12.254;2023-05-29T14:35:00;5.53;;;4.05;;
5787;SDS011;2920;48.158;12.254;2023-05-29T14:37:26;7.10;;;3.88;;
5787;SDS011;2920;48.158;12.254;2023-05-29T14:39:51;4.60;;;3.28;;
5787;SDS011;2920;48.158;12.254;2023-05-29T14:42:17;4.85;;;3.28;;
5787;SDS011;2920;48.158;12.254;2023-05-29T14:44:42;5.45;;;3.67;;
5787;SDS011;2920;48.158;12.254;2023-05-29T14:47:07;5.97;;;4.10;;
5787;SDS011;2920;48.158;12.254;2023-05-29T14:49:33;6.68;;;4.00;;
5787;SDS011;2920;48.158;12.254;2023-05-29T14:51:59;6.57;;;3.72;;
5787;SDS011;2920;48.158;12.254;2023-05-29T14:54:24;7.47;;;3.40;;
5787;SDS011;2920;48.158;12.254;2023-05-29T14:56:49;4.15;;;3.08;;
5787;SDS011;2920;48.158;12.254;2023-05-29T14:59:15;4.75;;;3.30;;
5787;SDS011;2920;48.158;12.254;2023-05-29T15:01:40;5.22;;;3.65;;
5787;SDS011;2920;48.158;12.254;2023-05-29T15:04:06;6.78;;;3.78;;
5787;SDS011;2920;48.158;12.254;2023-05-29T15:06:31;4.55;;;3.03;;
5787;SDS011;2920;48.158;12.254;2023-05-29T15:08:58;8.07;;;3.63;;
5787;SDS011;2920;48.158;12.254;2023-05-29T15:11:25;5.10;;;3.22;;
5787;SDS011;2920;48.158;12.254;2023-05-29T15:13:51;6.78;;;3.75;;
5787;SDS011;2920;48.158;12.254;2023-05-29T15:16:16;6.45;;;3.65;;
5787;SDS011;2920;48.158;12.254;2023-05-29T15:18:42;8.00;;;3.20;;
5787;SDS011;2920;48.158;12.254;2023-05-29T15:21:07;7.95;;;3.58;;
5787;SDS011;2920;48.158;12.254;2023-05-29T15:23:32;10.02;;;3.40;;
5787;SDS011;2920;48.158;12.254;2023-05-29T15:25:59;6.07;;;3.95;;
5787;SDS011;2920;48.158;12.254;2023-05-29T15:28:24;6.03;;;4.50;;
5787;SDS011;2920;48.158;12.254;2023-05-29T15:30:50;6.93;;;3.38;;